Time;durP1;ratioP1;P1;durP2;ratioP2;P2;SDS_P1;SDS_P2;PMS_P1;PMS_P2;Temp;Humidity;BMP_temperature;BMP_pressure;BME280_temperature;BME280_humidity;BME280_pressure;Samples;Min_cycle;Max_cycle;Signal;HPM_P1;HPM_P2
2021/01/01 00:01:35;;;;;;;0.50;0.50;;;;;;;2.31;89.42;99389.59;5104659;28;20059;-62
2021/01/01 00:04:02;;;;;;;8.95;4.32;;;;;;;2.28;89.21;99392.13;5104735;28;20028;-62
2021/01/01 00:06:27;;;;;;;0.40;0.40;;;;;;;2.44;88.66;99390.56;5104622;28;20049;-63
2021/01/01 00:08:53;;;;;;;0.30;0.30;;;;;;;2.26;89.53;99399.81;5103513;28;20099;-62
2021/01/01 00:11:18;;;;;;;0.47;0.47;;;;;;;2.27;89.59;99395.56;5104443;28;20529;-63
2021/01/01 00:13:44;;;;;;;0.35;0.35;;;;;;;2.28;89.48;99395.56;5104335;28;20019;-63
2021/01/01 00:16:10;;;;;;;0.35;0.35;;;;;;;2.28;89.59;99395.56;5104617;28;20059;-62
2021/01/01 00:18:36;;;;;;;0.40;0.40;;;;;;;2.37;89.56;99399.91;5104288;28;20053;-63
2021/01/01 00:21:02;;;;;;;1.02;1.02;;;;;;;2.33;89.49;99393.88;5104451;28;20072;-63
2021/01/01 00:23:27;;;;;;;0.30;0.30;;;;;;;2.32;89.49;99398.97;5104588;28;20024;-62
2021/01/01 00:25:52;;;;;;;1.10;1.10;;;;;;;2.33;89.49;99396.44;5104299;28;20047;-63
2021/01/01 00:28:18;;;;;;;0.40;0.40;;;;;;;2.34;89.33;99392.19;5103985;28;20032;-62
2021/01/01 00:30:43;;;;;;;55.72;5.72;;;;;;;2.33;89.52;99395.59;5104277;28;20013;-63
2021/01/01 00:33:08;;;;;;;0.40;0.40;;;;;;;2.27;89.74;99393.00;5103424;28;20040;-63
2021/01/01 00:35:34;;;;;;;0.73;0.73;;;;;;;2.33;89.28;99398.16;5103790;28;20020;-62
2021/01/01 00:37:59;;;;;;;2.30;2.15;;;;;;;2.28;89.45;99402.38;5104021;28;20040;-63
2021/01/01 00:40:24;;;;;;;0.35;0.35;;;;;;;2.31;89.33;99408.41;5104167;28;20031;-62
2021/01/01 00:42:50;;;;;;;0.40;0.40;;;;;;;2.24;89.30;99398.91;5103891;28;20069;-62
2021/01/01 00:45:15;;;;;;;0.60;0.60;;;;;;;2.33;89.17;99413.53;5104135;28;20024;-61
2021/01/01 00:47:45;;;;;;;0.50;0.50;;;;;;;2.22;89.24;99403.19;5103867;28;20077;-61
2021/01/01 00:50:11;;;;;;;0.40;0.40;;;;;;;2.21;89.42;99406.56;5102556;28;20069;-62
2021/01/01 00:52:36;;;;;;;0.68;0.68;;;;;;;2.22;89.71;99414.28;5103819;28;20099;-62
2021/01/01 00:55:02;;;;;;;0.47;0.47;;;;;;;2.25;89.74;99412.59;5103793;28;20028;-61
2021/01/01 00:57:28;;;;;;;0.73;0.73;;;;;;;2.21;89.78;99415.13;5103664;28;20030;-61
2021/01/01 00:59:53;;;;;;;0.40;0.40;;;;;;;2.23;89.60;99413.44;5103510;28;20030;-61
2021/01/01 01:02:18;;;;;;;0.40;0.40;;;;;;;2.21;89.70;99420.25;5103637;28;20060;-61
2021/01/01 01:04:44;;;;;;;0.30;0.30;;;;;;;2.23;89.65;99420.25;5103746;28;20020;-61
2021/01/01 01:07:09;;;;;;;0.40;0.40;;;;;;;2.36;89.05;99416.13;5103683;28;20034;-61
2021/01/01 01:09:34;;;;;;;0.40;0.40;;;;;;;2.33;88.81;99424.63;5103195;28;20406;-61
2021/01/01 01:12:00;;;;;;;0.43;0.43;;;;;;;2.27;89.09;99422.00;5103515;28;20024;-62
2021/01/01 01:14:25;;;;;;;0.60;0.60;;;;;;;2.30;88.99;99431.44;5103479;28;20028;-62
2021/01/01 01:16:51;;;;;;;0.40;0.40;;;;;;;2.27;89.11;99428.84;5103626;28;20027;-62
2021/01/01 01:19:16;;;;;;;0.40;0.40;;;;;;;2.28;88.87;99422.88;5103435;28;20028;-62
2021/01/01 01:21:41;;;;;;;0.40;0.40;;;;;;;2.22;89.12;99419.41;5103450;28;20020;-62
2021/01/01 01:24:07;;;;;;;0.32;0.32;;;;;;;2.19;89.11;99424.50;5103710;28;20016;-61
2021/01/01 01:26:32;;;;;;;0.70;0.70;;;;;;;2.15;89.34;99430.44;5103545;28;20432;-61
2021/01/01 01:28:58;;;;;;;0.40;0.40;;;;;;;2.18;89.39;99432.16;5103185;28;20024;-62
2021/01/01 01:31:23;;;;;;;0.40;0.40;;;;;;;2.30;88.84;99434.84;5103387;28;20020;-62
2021/01/01 01:33:48;;;;;;;0.40;0.40;;;;;;;2.22;88.88;99433.94;5103417;28;20516;-62
2021/01/01 01:36:14;;;;;;;1.70;1.60;;;;;;;2.25;88.90;99438.22;5103147;28;20024;-62
2021/01/01 01:38:40;;;;;;;0.40;0.40;;;;;;;2.27;88.51;99431.41;5103242;28;20111;-62
2021/01/01 01:41:05;;;;;;;0.40;0.40;;;;;;;2.23;88.68;99439.06;5102958;28;20055;-62
2021/01/01 01:43:31;;;;;;;0.40;0.40;;;;;;;2.20;88.83;99438.16;5102664;28;20119;-63
2021/01/01 01:45:56;;;;;;;0.30;0.30;;;;;;;2.19;88.93;99447.53;5106409;28;20050;-62
2021/01/01 01:48:28;;;;;;;0.40;0.40;;;;;;;2.32;88.22;99445.09;5106997;28;20034;-62
2021/01/01 01:50:54;;;;;;;0.40;0.40;;;;;;;2.22;88.73;99444.16;5106938;28;20348;-62
2021/01/01 01:53:21;;;;;;;0.40;0.40;;;;;;;2.34;88.09;99451.97;5107122;28;20551;-62
2021/01/01 01:55:48;;;;;;;0.40;0.40;;;;;;;2.20;88.37;99451.84;5106772;28;20024;-62
2021/01/01 01:58:13;;;;;;;0.45;0.45;;;;;;;2.19;88.24;99452.66;5105288;28;20012;-62
2021/01/01 02:03:16;;;;;;;1.10;1.10;;;;;;;2.25;87.47;99448.44;5107002;28;20091;-62
2021/01/01 02:05:42;;;;;;;0.50;0.50;;;;;;;2.20;87.63;99456.97;5106766;28;20028;-62
2021/01/01 02:08:07;;;;;;;0.50;0.50;;;;;;;2.42;86.23;99454.59;5106560;28;20031;-62
2021/01/01 02:10:33;;;;;;;0.30;0.30;;;;;;;2.40;86.31;99455.41;5106682;28;20031;-61
2021/01/01 02:12:59;;;;;;;1.02;0.65;;;;;;;2.42;85.68;99451.16;5106681;28;20023;-61
2021/01/01 02:15:27;;;;;;;0.40;0.40;;;;;;;2.31;85.90;99457.06;5106762;28;20277;-61
2021/01/01 02:17:54;;;;;;;0.40;0.40;;;;;;;2.20;86.34;99456.09;5106441;28;20050;-61
2021/01/01 02:20:19;;;;;;;0.50;0.50;;;;;;;2.32;85.71;99456.22;5106657;28;20066;-61
2021/01/01 02:22:44;;;;;;;0.40;0.40;;;;;;;2.13;86.49;99457.72;5106563;28;20024;-62
2021/01/01 02:25:11;;;;;;;0.40;0.40;;;;;;;2.02;87.25;99459.28;5106528;28;20107;-61
2021/01/01 02:27:40;;;;;;;1.00;1.00;;;;;;;1.93;87.72;99453.22;5106517;28;20024;-61
2021/01/01 02:30:07;;;;;;;0.30;0.30;;;;;;;2.06;87.41;99461.06;5106183;28;20030;-61
2021/01/01 02:32:33;;;;;;;0.40;0.40;;;;;;;2.21;86.49;99461.22;5106086;28;20031;-62
2021/01/01 02:34:59;;;;;;;0.40;0.40;;;;;;;2.06;87.18;99451.66;5106306;28;20527;-62
2021/01/01 02:37:24;;;;;;;0.50;0.50;;;;;;;2.15;86.56;99455.19;5106182;28;20035;-62
2021/01/01 02:39:50;;;;;;;0.40;0.40;;;;;;;1.97;87.33;99455.00;5106228;28;20063;-62
2021/01/01 02:42:16;;;;;;;0.40;0.40;;;;;;;2.15;86.32;99457.72;5106137;28;20502;-62
2021/01/01 02:44:42;;;;;;;0.40;0.40;;;;;;;1.97;87.07;99454.13;5105935;28;20016;-60
2021/01/01 02:47:08;;;;;;;0.40;0.40;;;;;;;1.98;87.04;99454.13;5106280;28;20024;-62
2021/01/01 02:49:33;;;;;;;0.40;0.40;;;;;;;1.86;87.58;99466.81;5106156;28;20484;-61
2021/01/01 02:51:59;;;;;;;0.40;0.40;;;;;;;1.93;87.90;99467.75;5105862;28;20020;-62
2021/01/01 02:54:25;;;;;;;1.13;1.13;;;;;;;2.04;87.28;99472.97;5105747;28;20059;-62
2021/01/01 02:56:51;;;;;;;0.40;0.40;;;;;;;1.87;87.77;99465.94;5104701;28;20081;-62
2021/01/01 02:59:16;;;;;;;0.40;0.40;;;;;;;1.80;88.22;99474.41;5105579;28;20479;-62
2021/01/01 03:01:41;;;;;;;0.40;0.40;;;;;;;1.76;88.53;99468.38;5105730;28;20507;-61
2021/01/01 03:04:07;;;;;;;0.63;0.63;;;;;;;1.86;88.13;99474.47;5105658;28;20138;-61
2021/01/01 03:06:32;;;;;;;0.40;0.40;;;;;;;1.83;88.36;99466.78;5105284;28;20027;-62
2021/01/01 03:08:58;;;;;;;0.40;0.40;;;;;;;1.89;87.91;99471.09;5105621;28;20020;-63
2021/01/01 03:11:23;;;;;;;0.32;0.32;;;;;;;1.82;88.03;99471.03;5105733;28;20024;-63
2021/01/01 03:13:49;;;;;;;0.40;0.40;;;;;;;1.86;87.92;99464.25;5105251;28;20024;-62
2021/01/01 03:16:14;;;;;;;0.50;0.50;;;;;;;1.94;87.79;99467.75;5105316;28;20153;-62
2021/01/01 03:18:40;;;;;;;0.40;0.40;;;;;;;2.03;87.08;99469.56;5105137;28;20020;-62
2021/01/01 03:21:05;;;;;;;0.38;0.38;;;;;;;1.89;87.48;99464.28;5103905;28;20384;-61
2021/01/01 03:23:30;;;;;;;0.35;0.35;;;;;;;2.03;87.06;99463.59;5105045;28;20031;-61
2021/01/01 03:25:56;;;;;;;0.40;0.40;;;;;;;1.89;87.65;99464.28;5104987;28;20087;-61
2021/01/01 03:28:21;;;;;;;4.05;2.40;;;;;;;2.13;86.63;99459.41;5104806;28;20081;-61
2021/01/01 03:30:46;;;;;;;0.40;0.40;;;;;;;2.03;86.75;99461.03;5105155;28;20024;-61
2021/01/01 03:33:12;;;;;;;8.02;2.20;;;;;;;1.84;87.58;99453.13;5120781;28;20030;-61
2021/01/01 03:35:37;;;;;;;0.95;0.95;;;;;;;2.02;86.92;99459.28;5105020;28;20035;-62
2021/01/01 03:38:03;;;;;;;0.40;0.40;;;;;;;1.98;87.16;99455.88;5104488;28;20061;-61
2021/01/01 03:40:28;;;;;;;0.47;0.47;;;;;;;2.01;87.24;99468.69;5104971;28;20020;-60
2021/01/01 03:42:54;;;;;;;1.25;1.25;;;;;;;1.97;87.18;99462.69;5104918;28;20093;-60
2021/01/01 03:45:19;;;;;;;0.40;0.40;;;;;;;2.26;86.09;99458.72;5104523;28;20031;-60
2021/01/01 03:47:44;;;;;;;0.30;0.30;;;;;;;1.97;86.85;99462.69;5103613;28;20028;-61
2021/01/01 03:50:10;;;;;;;0.40;0.40;;;;;;;1.94;87.21;99460.09;5104786;28;20035;-61
2021/01/01 03:52:35;;;;;;;2.75;2.25;;;;;;;1.91;87.35;99454.06;5104501;28;20120;-61
2021/01/01 03:55:01;;;;;;;0.40;0.40;;;;;;;2.03;86.77;99456.75;5104468;28;20039;-61
2021/01/01 03:57:26;;;;;;;0.40;0.40;;;;;;;1.96;86.97;99460.97;5104380;28;20024;-61
2021/01/01 03:59:52;;;;;;;0.40;0.40;;;;;;;1.85;87.58;99460.81;5104181;28;20028;-60
2021/01/01 04:02:17;;;;;;;0.40;0.40;;;;;;;1.90;87.40;99460.03;5104325;28;20103;-60
2021/01/01 04:04:42;;;;;;;0.30;0.30;;;;;;;1.99;86.72;99449.91;5104534;28;20024;-60
2021/01/01 04:07:08;;;;;;;0.40;0.40;;;;;;;1.91;87.33;99454.06;5104224;28;20043;-60
2021/01/01 04:09:33;;;;;;;1.13;1.13;;;;;;;1.83;87.67;99454.84;5104389;28;20107;-60
2021/01/01 04:11:59;;;;;;;0.40;0.40;;;;;;;1.79;87.90;99450.50;5104297;28;20028;-61
2021/01/01 04:14:24;;;;;;;0.40;0.40;;;;;;;1.77;87.96;99448.78;5104099;28;20035;-60
2021/01/01 04:16:50;;;;;;;0.30;0.30;;;;;;;1.79;87.79;99444.56;5104391;28;20298;-59
2021/01/01 04:19:15;;;;;;;0.30;0.30;;;;;;;1.81;87.69;99443.72;5104176;28;20024;-59
2021/01/01 04:21:47;;;;;;;0.47;0.47;;;;;;;1.73;88.26;99453.00;5104155;28;20028;-59
2021/01/01 04:24:13;;;;;;;;;;;;;;;1.80;88.08;99451.38;5104542;28;20031;-59
2021/01/01 04:26:39;;;;;;;0.30;0.30;;;;;;;1.71;88.17;99440.19;5104140;28;19949;-60
2021/01/01 04:29:04;;;;;;;0.40;0.40;;;;;;;1.67;88.41;99455.47;5103851;28;20523;-60
2021/01/01 04:31:32;;;;;;;0.45;0.45;;;;;;;1.65;88.44;99450.34;5103931;28;20028;-59
2021/01/01 04:33:57;;;;;;;0.40;0.40;;;;;;;1.60;88.72;99446.84;5103860;28;20063;-60
2021/01/01 04:36:22;;;;;;;0.38;0.38;;;;;;;1.60;88.19;99434.06;5103732;28;20023;-60
2021/01/01 04:38:48;;;;;;;0.40;0.40;;;;;;;1.56;88.49;99443.44;5103746;28;20095;-60
2021/01/01 04:41:14;;;;;;;0.40;0.40;;;;;;;1.65;88.15;99449.47;5103668;28;20026;-59
2021/01/01 04:43:39;;;;;;;0.40;0.40;;;;;;;1.60;88.11;99457.09;5103543;28;20032;-59
2021/01/01 04:46:05;;;;;;;0.70;0.70;;;;;;;1.54;88.32;99449.34;5103945;28;20012;-60
2021/01/01 04:48:31;;;;;;;0.40;0.40;;;;;;;1.52;88.36;99453.59;5103566;28;20686;-59
2021/01/01 04:50:56;;;;;;;0.35;0.35;;;;;;;1.61;87.92;99452.00;5103586;28;20050;-59
2021/01/01 04:53:24;;;;;;;0.40;0.40;;;;;;;1.50;88.36;99450.16;5103525;28;20020;-60
2021/01/01 04:55:50;;;;;;;0.40;0.40;;;;;;;1.47;88.54;99459.50;5103558;28;20024;-60
2021/01/01 04:58:16;;;;;;;0.30;0.30;;;;;;;1.45;88.68;99468.84;5103539;28;20024;-59
2021/01/01 05:00:41;;;;;;;0.40;0.40;;;;;;;1.53;88.43;99468.09;5102458;28;20043;-59
2021/01/01 05:03:07;;;;;;;0.73;0.73;;;;;;;1.64;87.93;99475.91;5103712;28;20491;-60
2021/01/01 05:05:32;;;;;;;0.40;0.40;;;;;;;1.67;87.81;99465.72;5119026;28;20024;-60
2021/01/01 05:07:58;;;;;;;0.35;0.35;;;;;;;1.75;87.30;99468.38;5103639;28;20039;-60
2021/01/01 05:10:23;;;;;;;0.40;0.40;;;;;;;1.68;87.33;99468.28;5103286;28;20025;-60
2021/01/01 05:12:49;;;;;;;0.40;0.40;;;;;;;1.66;87.65;99477.63;5103431;28;20032;-60
2021/01/01 05:15:32;;;;;;;0.40;0.40;;;;;;;1.58;88.04;99466.47;5103321;28;20049;-59
2021/01/01 05:17:58;;;;;;;0.40;0.40;;;;;;;1.56;87.97;99479.25;5103312;28;20024;-60
2021/01/01 05:20:27;;;;;;;0.40;0.40;;;;;;;1.65;87.78;99470.81;5106267;28;20016;-61
2021/01/01 05:22:56;;;;;;;0.30;0.30;;;;;;;1.51;88.30;99474.88;5107573;28;20031;-58
2021/01/01 05:25:24;;;;;;;0.68;0.68;;;;;;;1.51;88.66;99482.56;5107234;28;20107;-58
2021/01/01 05:27:58;;;;;;;0.40;0.40;;;;;;;1.53;88.54;99484.31;5107369;28;20020;-58
2021/01/01 05:30:31;;;;;;;0.40;0.40;;;;;;;1.78;87.66;99476.94;5107149;28;20032;-59
2021/01/01 05:32:58;;;;;;;0.50;0.50;;;;;;;1.76;87.56;99475.22;5107366;28;20039;-59
2021/01/01 05:35:26;;;;;;;0.40;0.40;;;;;;;1.80;87.38;99476.97;5107452;28;20028;-60
2021/01/01 05:37:53;;;;;;;0.35;0.35;;;;;;;1.61;88.25;99481.84;5107148;28;20047;-59
2021/01/01 05:40:29;;;;;;;0.40;0.40;;;;;;;1.59;88.65;99491.19;5107082;28;20072;-59
2021/01/01 05:42:54;;;;;;;0.40;0.40;;;;;;;1.64;88.27;99481.91;5107053;28;20030;-59
2021/01/01 05:45:20;;;;;;;0.40;0.40;;;;;;;1.78;87.74;99494.00;5106879;28;20081;-58
2021/01/01 05:48:05;;;;;;;0.40;0.40;;;;;;;1.90;87.07;99489.03;5107000;28;20024;-60
2021/01/01 05:50:32;;;;;;;0.40;0.40;;;;;;;1.84;87.23;99487.25;5106973;28;20031;-59
2021/01/01 05:53:09;;;;;;;0.38;0.38;;;;;;;1.81;87.52;99488.91;5106880;28;20034;-59
2021/01/01 05:55:35;;;;;;;12.88;8.88;;;;;;;1.78;87.52;99496.56;5107062;28;20028;-59
2021/01/01 05:58:00;;;;;;;0.40;0.40;;;;;;;1.90;87.13;99496.69;5106806;28;20024;-59
2021/01/01 06:00:26;;;;;;;0.50;0.50;;;;;;;1.75;87.68;99497.38;5106219;28;20028;-59
2021/01/01 06:02:56;;;;;;;0.40;0.40;;;;;;;1.76;87.69;99500.81;5106465;28;20114;-59
2021/01/01 06:05:25;;;;;;;0.40;0.40;;;;;;;1.83;87.53;99492.38;5106581;28;20016;-59
2021/01/01 06:07:52;;;;;;;0.38;0.38;;;;;;;1.82;87.57;99500.91;5121926;28;20051;-59
2021/01/01 06:10:21;;;;;;;0.40;0.40;;;;;;;1.93;86.95;99496.75;5106263;28;20047;-59
2021/01/01 06:12:51;;;;;;;0.40;0.40;;;;;;;2.01;86.75;99511.34;5106272;28;20020;-60
2021/01/01 06:15:21;;;;;;;0.40;0.40;;;;;;;1.78;87.73;99506.78;5106131;28;20024;-60
2021/01/01 06:17:52;;;;;;;0.30;0.30;;;;;;;1.81;87.96;99506.84;5106318;28;20020;-59
2021/01/01 06:20:19;;;;;;;0.40;0.40;;;;;;;1.89;87.45;99506.94;5106226;28;20023;-59
2021/01/01 06:23:06;;;;;;;0.45;0.45;;;;;;;1.95;87.12;99509.59;5106201;28;20046;-60
2021/01/01 06:25:33;;;;;;;0.40;0.40;;;;;;;1.90;87.17;99511.22;5106248;28;20024;-59
2021/01/01 06:27:59;;;;;;;0.40;0.40;;;;;;;1.79;87.95;99513.66;5122068;28;20048;-59
2021/01/01 06:30:26;;;;;;;0.40;0.40;;;;;;;1.78;88.23;99499.13;5105697;28;20123;-60
2021/01/01 06:32:52;;;;;;;0.40;0.40;;;;;;;1.86;87.74;99512.88;5106102;28;20504;-61
2021/01/01 06:35:20;;;;;;;0.40;0.40;;;;;;;1.87;87.72;99514.59;5106125;28;20031;-61
2021/01/01 06:37:54;;;;;;;0.40;0.40;;;;;;;1.83;87.72;99512.84;5105697;28;20047;-61
2021/01/01 06:40:22;;;;;;;0.30;0.30;;;;;;;1.75;88.24;99515.31;5121742;28;20052;-60
2021/01/01 06:42:52;;;;;;;0.40;0.40;;;;;;;1.80;88.15;99516.22;5105971;28;20044;-60
2021/01/01 06:45:40;;;;;;;0.40;0.40;;;;;;;1.75;88.46;99519.56;5105752;28;20365;-62
2021/01/01 06:48:22;;;;;;;0.30;0.30;;;;;;;1.85;88.13;99526.53;5105832;28;20047;-61
2021/01/01 06:50:52;;;;;;;0.50;0.50;;;;;;;1.77;88.37;99523.00;5105673;28;20092;-61
2021/01/01 06:53:25;;;;;;;0.40;0.40;;;;;;;1.88;87.83;99515.47;5121372;28;20024;-61
2021/01/01 06:55:51;;;;;;;0.40;0.40;;;;;;;1.79;88.19;99526.44;5105692;28;20032;-60
2021/01/01 06:58:24;;;;;;;0.98;0.98;;;;;;;1.71;88.55;99529.75;5105460;28;20088;-59
2021/01/01 07:00:50;;;;;;;0.40;0.40;;;;;;;1.82;88.44;99531.59;5105518;28;20028;-60
2021/01/01 07:03:36;;;;;;;0.40;0.40;;;;;;;1.84;88.42;99532.47;5105515;28;20016;-61
2021/01/01 07:06:01;;;;;;;0.50;0.50;;;;;;;1.99;87.54;99536.94;5105555;28;20112;-60
2021/01/01 07:08:39;;;;;;;0.40;0.40;;;;;;;2.04;86.86;99539.56;5121082;28;20395;-60
2021/01/01 07:11:07;;;;;;;0.40;0.40;;;;;;;1.90;87.66;99544.50;5105379;28;20066;-60
2021/01/01 07:13:50;;;;;;;0.40;0.40;;;;;;;1.87;87.68;99549.59;5104938;28;20023;-60
2021/01/01 07:16:17;;;;;;;0.40;0.40;;;;;;;1.89;87.59;99559.00;5105377;28;20072;-60
2021/01/01 07:18:43;;;;;;;0.40;0.40;;;;;;;1.86;87.79;99558.94;5120592;28;20020;-60
2021/01/01 07:21:10;;;;;;;0.40;0.40;;;;;;;1.77;88.25;99553.72;5105102;28;20024;-61
2021/01/01 07:23:36;;;;;;;0.30;0.30;;;;;;;1.78;88.69;99551.19;5105288;28;20027;-60
2021/01/01 07:26:03;;;;;;;0.40;0.40;;;;;;;1.83;88.46;99564.03;5105043;28;20032;-60
2021/01/01 07:28:29;;;;;;;0.40;0.40;;;;;;;1.83;88.66;99554.66;5104709;28;20016;-60
2021/01/01 07:30:55;;;;;;;0.40;0.40;;;;;;;1.90;88.63;99563.25;5105288;28;20396;-60
2021/01/01 07:33:30;;;;;;;0.40;0.40;;;;;;;1.95;88.46;99561.63;5104884;28;20020;-60
2021/01/01 07:35:56;;;;;;;0.40;0.40;;;;;;;1.92;88.12;99566.72;5105003;28;20088;-60
2021/01/01 07:38:23;;;;;;;1.10;1.10;;;;;;;1.95;87.99;99564.19;5104623;28;20048;-60
2021/01/01 07:40:50;;;;;;;0.40;0.40;;;;;;;1.88;88.25;99567.53;5104744;28;20407;-60
2021/01/01 07:43:16;;;;;;;0.40;0.40;;;;;;;1.95;88.01;99574.44;5104273;28;20035;-59
2021/01/01 07:45:41;;;;;;;0.40;0.40;;;;;;;1.90;88.35;99570.94;5120393;28;20042;-60
2021/01/01 07:48:07;;;;;;;0.40;0.40;;;;;;;1.90;88.34;99577.78;5104668;28;20028;-60
2021/01/01 07:50:34;;;;;;;0.40;0.40;;;;;;;2.06;87.70;99578.84;5104653;28;20016;-60
2021/01/01 07:53:12;;;;;;;0.40;0.40;;;;;;;1.97;87.52;99575.31;5104682;28;20083;-59
2021/01/01 07:55:39;;;;;;;0.35;0.35;;;;;;;1.85;87.99;99582.84;5104764;28;20028;-59
2021/01/01 07:58:12;;;;;;;0.95;0.95;;;;;;;1.94;87.67;99579.53;5104470;28;20047;-60
2021/01/01 08:00:40;;;;;;;2.40;1.60;;;;;;;1.87;87.92;99578.59;5104390;28;20038;-60
2021/01/01 08:03:06;;;;;;;0.40;0.40;;;;;;;1.91;87.62;99582.06;5104447;28;20039;-60
2021/01/01 08:05:32;;;;;;;0.30;0.30;;;;;;;1.92;87.16;99584.63;5104458;28;20051;-59
2021/01/01 08:08:14;;;;;;;0.40;0.40;;;;;;;1.89;87.52;99581.16;5104560;28;20088;-59
2021/01/01 08:10:41;;;;;;;0.40;0.40;;;;;;;1.78;87.35;99584.44;5104404;28;20454;-59
2021/01/01 08:13:35;;;;;;;0.40;0.40;;;;;;;1.79;87.78;99588.72;5104501;28;20305;-60
2021/01/01 08:16:15;;;;;;;0.30;0.30;;;;;;;1.73;88.13;99599.72;5099664;28;20054;-60
2021/01/01 08:18:41;;;;;;;0.30;0.30;;;;;;;1.76;88.10;99600.63;5104327;28;20016;-60
2021/01/01 08:21:07;;;;;;;0.40;0.40;;;;;;;1.74;88.14;99598.06;5104288;28;20031;-60
2021/01/01 08:23:51;;;;;;;0.40;0.40;;;;;;;1.76;88.36;99600.63;5104339;28;20051;-60
2021/01/01 08:26:17;;;;;;;0.40;0.40;;;;;;;1.81;88.36;99596.41;5104252;28;20518;-60
2021/01/01 08:28:43;;;;;;;0.30;0.30;;;;;;;1.84;87.87;99599.00;5103950;28;20016;-60
2021/01/01 08:31:10;;;;;;;0.38;0.38;;;;;;;1.81;87.88;99602.41;5104305;28;20024;-60
2021/01/01 08:33:38;;;;;;;0.40;0.40;;;;;;;1.73;87.80;99593.75;5104040;28;20039;-60
2021/01/01 08:36:09;;;;;;;0.30;0.30;;;;;;;1.77;88.07;99613.44;5104060;28;20024;-60
2021/01/01 08:38:36;;;;;;;0.47;0.47;;;;;;;1.83;87.81;99603.28;5103884;28;20059;-61
2021/01/01 08:41:03;;;;;;;0.40;0.40;;;;;;;1.76;88.03;99611.69;5103892;28;20026;-61
2021/01/01 08:43:29;;;;;;;0.38;0.38;;;;;;;1.77;88.18;99607.47;5103712;28;20020;-61
2021/01/01 08:45:55;;;;;;;0.30;0.30;;;;;;;1.84;88.06;99607.56;5103970;28;20030;-62
2021/01/01 08:48:21;;;;;;;0.40;0.40;;;;;;;1.85;88.09;99618.69;5119655;28;20052;-61
2021/01/01 08:50:50;;;;;;;0.40;0.40;;;;;;;1.84;88.08;99628.03;5103724;28;20036;-61
2021/01/01 08:53:17;;;;;;;0.30;0.30;;;;;;;1.85;88.06;99619.50;5085201;28;20478;-61
2021/01/01 08:55:43;;;;;;;0.30;0.30;;;;;;;1.88;87.80;99621.28;5103386;28;20080;-61
2021/01/01 08:58:14;;;;;;;0.40;0.40;;;;;;;1.84;87.76;99628.03;5103692;28;20031;-61
2021/01/01 09:00:42;;;;;;;0.40;0.40;;;;;;;1.91;87.40;99629.00;5103412;28;20030;-61
2021/01/01 09:03:08;;;;;;;0.47;0.47;;;;;;;1.85;87.48;99621.22;5103906;28;20024;-62
2021/01/01 09:05:36;;;;;;;0.30;0.30;;;;;;;1.80;87.79;99627.97;5103860;28;20111;-63
2021/01/01 09:08:09;;;;;;;0.40;0.40;;;;;;;1.82;87.73;99632.28;5103807;28;20075;-61
2021/01/01 09:10:36;;;;;;;0.30;0.30;;;;;;;1.83;87.54;99623.78;5103608;28;20016;-62
2021/01/01 09:13:27;;;;;;;0.40;0.40;;;;;;;1.89;87.68;99633.22;5103572;28;20030;-63
2021/01/01 09:16:05;;;;;;;0.40;0.40;;;;;;;1.87;87.59;99634.06;5103694;28;20538;-62
2021/01/01 09:18:31;;;;;;;0.40;0.40;;;;;;;1.85;87.83;99640.00;5119210;28;20028;-61
2021/01/01 09:21:14;;;;;;;0.40;0.40;;;;;;;1.95;87.70;99635.88;5103336;28;20533;-62
2021/01/01 09:23:41;;;;;;;0.30;0.30;;;;;;;1.94;87.10;99636.72;5102058;28;20475;-62
2021/01/01 09:26:07;;;;;;;0.40;0.40;;;;;;;1.98;87.01;99635.91;5103330;28;20027;-62
2021/01/01 09:28:34;;;;;;;0.40;0.40;;;;;;;2.04;86.49;99630.03;5101792;28;20433;-63
2021/01/01 09:30:59;;;;;;;0.40;0.40;;;;;;;1.98;86.77;99648.72;5119046;28;20028;-62
2021/01/01 09:33:25;;;;;;;0.70;0.70;;;;;;;1.96;87.02;99639.31;5103408;28;20035;-62
2021/01/01 09:35:50;;;;;;;0.38;0.38;;;;;;;1.99;86.98;99641.91;5103482;28;20046;-62
2021/01/01 09:38:16;;;;;;;0.40;0.40;;;;;;;2.07;86.76;99636.88;5103335;28;20500;-62
2021/01/01 09:40:41;;;;;;;0.40;0.40;;;;;;;2.09;86.41;99646.31;5102863;28;20032;-62
2021/01/01 09:43:07;;;;;;;0.30;0.30;;;;;;;2.06;86.66;99650.53;5103129;28;20028;-61
2021/01/01 09:45:34;;;;;;;0.50;0.50;;;;;;;1.96;87.39;99652.97;5103228;28;20379;-62
2021/01/01 09:47:59;;;;;;;0.40;0.40;;;;;;;2.19;86.75;99646.47;5103156;28;20026;-63
2021/01/01 09:50:25;;;;;;;0.40;0.40;;;;;;;2.07;86.90;99649.69;5103228;28;20047;-62
2021/01/01 09:52:50;;;;;;;0.40;0.40;;;;;;;2.07;87.03;99652.25;5103032;28;20016;-62
2021/01/01 09:55:16;;;;;;;0.40;0.40;;;;;;;2.18;86.66;99645.59;5103310;28;20392;-62
2021/01/01 09:57:42;;;;;;;0.30;0.30;;;;;;;2.22;85.86;99652.47;5103042;28;20521;-62
2021/01/01 10:00:10;;;;;;;0.50;0.50;;;;;;;2.07;86.44;99650.56;5102615;28;20506;-63
2021/01/01 10:02:35;;;;;;;0.40;0.40;;;;;;;2.06;86.62;99653.94;5102872;28;20078;-62
2021/01/01 10:05:01;;;;;;;0.50;0.50;;;;;;;2.07;86.84;99655.69;5103240;28;20031;-62
2021/01/01 10:07:27;;;;;;;0.40;0.40;;;;;;;2.12;86.78;99650.63;5106830;28;20440;-63
2021/01/01 10:09:52;;;;;;;0.40;0.40;;;;;;;2.17;86.58;99648.97;5106777;28;20024;-62
2021/01/01 10:12:19;;;;;;;0.40;0.40;;;;;;;2.09;86.50;99642.91;5106467;28;20142;-62
2021/01/01 10:14:44;;;;;;;0.40;0.40;;;;;;;2.08;87.07;99652.28;5121808;28;20035;-62
2021/01/01 10:17:10;;;;;;;0.40;0.40;;;;;;;2.10;86.67;99658.28;5106562;28;20083;-63
2021/01/01 10:19:40;;;;;;;0.40;0.40;;;;;;;2.08;86.56;99653.97;5106437;28;20031;-63
2021/01/01 10:22:06;;;;;;;0.40;0.40;;;;;;;2.14;86.45;99653.22;5106162;28;20491;-63
2021/01/01 10:24:31;;;;;;;0.40;0.40;;;;;;;2.12;86.85;99655.75;5106377;28;20043;-63
2021/01/01 10:26:56;;;;;;;0.40;0.40;;;;;;;2.18;86.17;99652.41;5106024;28;20131;-63
2021/01/01 10:29:22;;;;;;;0.40;0.40;;;;;;;2.13;86.26;99652.34;5105999;28;20380;-63
2021/01/01 10:31:48;;;;;;;0.40;0.40;;;;;;;2.12;86.59;99663.44;5105945;28;20054;-63
2021/01/01 10:34:14;;;;;;;0.40;0.40;;;;;;;2.16;85.63;99654.06;5121684;28;20028;-63
2021/01/01 10:36:39;;;;;;;0.40;0.40;;;;;;;2.10;86.46;99658.28;5105780;28;20039;-63
2021/01/01 10:39:07;;;;;;;0.35;0.35;;;;;;;2.10;85.83;99660.84;5106212;28;20024;-62
2021/01/01 10:41:32;;;;;;;0.30;0.30;;;;;;;2.05;86.15;99653.91;5105749;28;20047;-63
2021/01/01 10:43:58;;;;;;;0.40;0.40;;;;;;;2.06;86.29;99655.66;5121512;28;20085;-63
2021/01/01 10:46:23;;;;;;;0.40;0.40;;;;;;;2.02;86.31;99652.19;5106058;28;20028;-63
2021/01/01 10:48:49;;;;;;;0.60;0.60;;;;;;;1.95;86.51;99646.13;5105683;28;20024;-64
2021/01/01 10:51:21;;;;;;;0.40;0.40;;;;;;;1.99;86.35;99649.59;5105693;28;20027;-63
2021/01/01 10:53:47;;;;;;;0.40;0.40;;;;;;;1.98;86.00;99643.59;5105724;28;20063;-63
2021/01/01 10:56:19;;;;;;;0.30;0.30;;;;;;;1.97;86.16;99649.56;5105825;28;20024;-64
2021/01/01 10:58:45;;;;;;;0.47;0.47;;;;;;;2.05;85.46;99636.88;5121203;28;20032;-64
2021/01/01 11:01:10;;;;;;;0.40;0.40;;;;;;;2.02;85.40;99656.44;5105768;28;20070;-62
2021/01/01 11:03:36;;;;;;;0.32;0.32;;;;;;;1.93;85.90;99647.78;5105561;28;20028;-64
2021/01/01 11:06:01;;;;;;;0.40;0.40;;;;;;;1.92;86.29;99640.94;5121140;28;20097;-64
2021/01/01 11:08:26;;;;;;;0.40;0.40;;;;;;;2.00;86.01;99650.47;5121223;28;20024;-63
2021/01/01 11:10:52;;;;;;;0.30;0.30;;;;;;;1.97;85.87;99652.13;5105278;28;20012;-63
2021/01/01 11:13:17;;;;;;;0.40;0.40;;;;;;;2.00;85.94;99655.56;5105308;28;20032;-64
2021/01/01 12:26:42;;;;;;;0.40;0.40;;;;;;;2.17;86.54;99650.69;5104187;28;20202;-63
2021/01/01 12:29:07;;;;;;;0.65;0.65;;;;;;;2.20;86.32;99649.03;5103400;28;20050;-63
2021/01/01 12:31:33;;;;;;;0.38;0.38;;;;;;;2.14;86.56;99666.84;5104044;28;20020;-63
2021/01/01 12:33:59;;;;;;;0.40;0.40;;;;;;;2.13;86.75;99647.22;5103772;28;20020;-63
2021/01/01 12:36:24;;;;;;;0.40;0.40;;;;;;;2.19;86.40;99654.97;5103777;28;20527;-64
2021/01/01 12:38:49;;;;;;;0.40;0.40;;;;;;;2.23;86.43;99661.88;5103807;28;20468;-63
2021/01/01 12:41:15;;;;;;;0.40;0.40;;;;;;;2.20;86.09;99655.84;5119191;28;20059;-63
2021/01/01 12:43:40;;;;;;;0.40;0.40;;;;;;;2.17;86.75;99658.38;5103362;28;20031;-62
2021/01/01 12:46:06;;;;;;;0.40;0.40;;;;;;;2.27;86.11;99660.19;5103874;28;20507;-64
2021/01/01 12:48:31;;;;;;;0.32;0.32;;;;;;;2.23;86.49;99659.31;5103682;28;20057;-65
2021/01/01 12:50:56;;;;;;;0.40;0.40;;;;;;;2.19;86.33;99660.09;5103774;28;20482;-63
2021/01/01 12:53:22;;;;;;;0.50;0.50;;;;;;;2.20;86.66;99656.72;5103636;28;20043;-68
2021/01/01 12:55:47;;;;;;;0.40;0.40;;;;;;;2.19;86.45;99649.84;5103393;28;20297;-63